sensor_id;sensor_type;location;lat;lon;timestamp;temperature;humidity
14079;DHT22;7115;50.150;8.568;2023-09-08T00:00:01;20.60;93.20
14079;DHT22;7115;50.150;8.568;2023-09-08T00:02:28;20.60;93.20
14079;DHT22;7115;50.150;8.568;2023-09-08T00:04:55;20.50;93.30
14079;DHT22;7115;50.150;8.568;2023-09-08T00:07:22;20.50;93.30
14079;DHT22;7115;50.150;8.568;2023-09-08T00:09:49;20.40;93.40
14079;DHT22;7115;50.150;8.568;2023-09-08T00:12:18;20.40;93.50
14079;DHT22;7115;50.150;8.568;2023-09-08T00:14:45;20.40;93.50
14079;DHT22;7115;50.150;8.568;2023-09-08T00:17:12;20.40;93.60
14079;DHT22;7115;50.150;8.568;2023-09-08T00:19:39;20.30;93.60
14079;DHT22;7115;50.150;8.568;2023-09-08T00:22:06;20.30;94.00
14079;DHT22;7115;50.150;8.568;2023-09-08T00:24:34;20.30;93.70
14079;DHT22;7115;50.150;8.568;2023-09-08T00:27:00;20.30;93.80
14079;DHT22;7115;50.150;8.568;2023-09-08T00:29:29;20.30;93.80
14079;DHT22;7115;50.150;8.568;2023-09-08T00:31:56;20.30;93.90
14079;DHT22;7115;50.150;8.568;2023-09-08T00:34:23;20.20;93.90
14079;DHT22;7115;50.150;8.568;2023-09-08T00:36:50;20.20;93.90
14079;DHT22;7115;50.150;8.568;2023-09-08T00:39:17;20.20;94.00
14079;DHT22;7115;50.150;8.568;2023-09-08T00:41:44;20.20;94.00
14079;DHT22;7115;50.150;8.568;2023-09-08T00:44:11;20.10;94.10
14079;DHT22;7115;50.150;8.568;2023-09-08T00:46:40;20.10;94.20
14079;DHT22;7115;50.150;8.568;2023-09-08T00:49:07;20.10;94.20
14079;DHT22;7115;50.150;8.568;2023-09-08T00:51:36;20.10;94.30
14079;DHT22;7115;50.150;8.568;2023-09-08T00:54:05;20.00;94.40
14079;DHT22;7115;50.150;8.568;2023-09-08T00:56:33;20.00;94.40
14079;DHT22;7115;50.150;8.568;2023-09-08T00:59:00;20.00;94.50
14079;DHT22;7115;50.150;8.568;2023-09-08T01:01:29;20.00;94.50
14079;DHT22;7115;50.150;8.568;2023-09-08T01:04:00;20.00;94.60
14079;DHT22;7115;50.150;8.568;2023-09-08T01:06:27;20.00;94.70
14079;DHT22;7115;50.150;8.568;2023-09-08T01:08:55;19.90;94.70
14079;DHT22;7115;50.150;8.568;2023-09-08T01:11:22;19.90;94.70
14079;DHT22;7115;50.150;8.568;2023-09-08T01:13:49;19.90;94.80
14079;DHT22;7115;50.150;8.568;2023-09-08T01:16:16;19.80;94.80
14079;DHT22;7115;50.150;8.568;2023-09-08T01:18:44;19.80;94.90
14079;DHT22;7115;50.150;8.568;2023-09-08T01:24:37;19.80;95.00
14079;DHT22;7115;50.150;8.568;2023-09-08T01:27:12;19.70;95.00
14079;DHT22;7115;50.150;8.568;2023-09-08T01:29:42;19.60;95.00
14079;DHT22;7115;50.150;8.568;2023-09-08T01:32:10;19.50;95.00
14079;DHT22;7115;50.150;8.568;2023-09-08T01:34:38;19.50;95.10
14079;DHT22;7115;50.150;8.568;2023-09-08T01:37:08;19.50;95.20
14079;DHT22;7115;50.150;8.568;2023-09-08T01:39:35;19.50;95.30
14079;DHT22;7115;50.150;8.568;2023-09-08T01:42:03;19.30;95.30
14079;DHT22;7115;50.150;8.568;2023-09-08T01:44:31;19.50;95.40
14079;DHT22;7115;50.150;8.568;2023-09-08T01:46:58;19.40;95.40
14079;DHT22;7115;50.150;8.568;2023-09-08T01:49:25;19.40;95.50
14079;DHT22;7115;50.150;8.568;2023-09-08T01:51:52;19.40;95.50
14079;DHT22;7115;50.150;8.568;2023-09-08T01:54:19;19.30;95.60
14079;DHT22;7115;50.150;8.568;2023-09-08T01:56:46;19.30;95.60
14079;DHT22;7115;50.150;8.568;2023-09-08T01:59:13;19.30;95.70
14079;DHT22;7115;50.150;8.568;2023-09-08T02:01:41;19.20;95.70
14079;DHT22;7115;50.150;8.568;2023-09-08T02:04:08;19.20;95.80
14079;DHT22;7115;50.150;8.568;2023-09-08T02:06:35;19.20;95.80
14079;DHT22;7115;50.150;8.568;2023-09-08T02:09:01;19.20;95.80
14079;DHT22;7115;50.150;8.568;2023-09-08T02:11:28;19.20;95.80
14079;DHT22;7115;50.150;8.568;2023-09-08T02:13:55;19.20;95.80
14079;DHT22;7115;50.150;8.568;2023-09-08T02:16:24;19.20;95.90
14079;DHT22;7115;50.150;8.568;2023-09-08T02:18:52;19.10;95.90
14079;DHT22;7115;50.150;8.568;2023-09-08T02:21:19;19.10;95.90
14079;DHT22;7115;50.150;8.568;2023-09-08T02:23:47;19.10;96.00
14079;DHT22;7115;50.150;8.568;2023-09-08T02:26:14;19.10;96.00
14079;DHT22;7115;50.150;8.568;2023-09-08T02:28:40;19.00;96.00
14079;DHT22;7115;50.150;8.568;2023-09-08T02:31:07;19.00;96.10
14079;DHT22;7115;50.150;8.568;2023-09-08T02:33:34;18.90;96.10
14079;DHT22;7115;50.150;8.568;2023-09-08T02:36:04;18.90;96.20
14079;DHT22;7115;50.150;8.568;2023-09-08T02:38:32;18.90;96.30
14079;DHT22;7115;50.150;8.568;2023-09-08T02:40:59;18.80;96.30
14079;DHT22;7115;50.150;8.568;2023-09-08T02:43:26;18.80;96.40
14079;DHT22;7115;50.150;8.568;2023-09-08T02:45:54;18.80;96.50
14079;DHT22;7115;50.150;8.568;2023-09-08T02:48:21;18.70;96.50
14079;DHT22;7115;50.150;8.568;2023-09-08T02:50:48;18.80;96.60
14079;DHT22;7115;50.150;8.568;2023-09-08T02:53:16;18.80;96.70
14079;DHT22;7115;50.150;8.568;2023-09-08T02:55:44;18.80;96.70
14079;DHT22;7115;50.150;8.568;2023-09-08T02:58:12;18.60;96.70
14079;DHT22;7115;50.150;8.568;2023-09-08T03:00:39;18.80;96.80
14079;DHT22;7115;50.150;8.568;2023-09-08T03:03:06;18.80;96.90
14079;DHT22;7115;50.150;8.568;2023-09-08T03:05:33;18.80;96.90
14079;DHT22;7115;50.150;8.568;2023-09-08T03:08:00;18.80;97.00
14079;DHT22;7115;50.150;8.568;2023-09-08T03:10:29;18.80;97.00
14079;DHT22;7115;50.150;8.568;2023-09-08T03:12:56;18.80;97.00
14079;DHT22;7115;50.150;8.568;2023-09-08T03:15:23;18.80;97.00
14079;DHT22;7115;50.150;8.568;2023-09-08T03:17:49;18.70;97.00
14079;DHT22;7115;50.150;8.568;2023-09-08T03:20:17;18.70;97.00
14079;DHT22;7115;50.150;8.568;2023-09-08T03:22:44;18.70;97.00
14079;DHT22;7115;50.150;8.568;2023-09-08T03:25:10;18.60;97.00
14079;DHT22;7115;50.150;8.568;2023-09-08T03:27:39;18.60;97.10
14079;DHT22;7115;50.150;8.568;2023-09-08T03:30:06;18.60;97.20
14079;DHT22;7115;50.150;8.568;2023-09-08T03:32:34;18.60;97.30
14079;DHT22;7115;50.150;8.568;2023-09-08T03:35:01;18.60;97.30
14079;DHT22;7115;50.150;8.568;2023-09-08T03:37:27;18.60;97.30
14079;DHT22;7115;50.150;8.568;2023-09-08T03:39:54;18.60;97.40
14079;DHT22;7115;50.150;8.568;2023-09-08T03:42:21;18.60;97.80
14079;DHT22;7115;50.150;8.568;2023-09-08T03:44:49;18.60;97.50
14079;DHT22;7115;50.150;8.568;2023-09-08T03:47:16;18.50;97.50
14079;DHT22;7115;50.150;8.568;2023-09-08T03:49:43;18.50;97.60
14079;DHT22;7115;50.150;8.568;2023-09-08T03:52:10;18.50;97.60
14079;DHT22;7115;50.150;8.568;2023-09-08T03:54:37;18.50;97.70
14079;DHT22;7115;50.150;8.568;2023-09-08T03:57:04;18.50;97.70
14079;DHT22;7115;50.150;8.568;2023-09-08T03:59:31;18.40;97.70
14079;DHT22;7115;50.150;8.568;2023-09-08T04:01:59;18.30;97.70
14079;DHT22;7115;50.150;8.568;2023-09-08T04:04:28;18.30;97.80
14079;DHT22;7115;50.150;8.568;2023-09-08T04:06:54;18.20;97.80
14079;DHT22;7115;50.150;8.568;2023-09-08T04:09:21;18.20;97.90
14079;DHT22;7115;50.150;8.568;2023-09-08T04:11:48;18.20;97.90
14079;DHT22;7115;50.150;8.568;2023-09-08T04:14:15;18.10;97.90
14079;DHT22;7115;50.150;8.568;2023-09-08T04:16:42;18.10;98.00
14079;DHT22;7115;50.150;8.568;2023-09-08T04:19:10;18.10;98.00
14079;DHT22;7115;50.150;8.568;2023-09-08T04:21:37;18.10;98.10
14079;DHT22;7115;50.150;8.568;2023-09-08T04:24:04;18.00;98.10
14079;DHT22;7115;50.150;8.568;2023-09-08T04:26:33;18.00;98.20
14079;DHT22;7115;50.150;8.568;2023-09-08T04:29:00;17.90;98.20
14079;DHT22;7115;50.150;8.568;2023-09-08T04:31:26;17.90;98.30
14079;DHT22;7115;50.150;8.568;2023-09-08T04:33:53;17.90;98.40
14079;DHT22;7115;50.150;8.568;2023-09-08T04:36:22;18.00;98.50
14079;DHT22;7115;50.150;8.568;2023-09-08T04:38:49;18.00;98.50
14079;DHT22;7115;50.150;8.568;2023-09-08T04:41:15;18.00;98.50
14079;DHT22;7115;50.150;8.568;2023-09-08T04:43:42;18.00;98.50
14079;DHT22;7115;50.150;8.568;2023-09-08T04:46:09;18.00;98.60
14079;DHT22;7115;50.150;8.568;2023-09-08T04:48:36;18.00;98.60
14079;DHT22;7115;50.150;8.568;2023-09-08T04:51:06;18.00;98.50
14079;DHT22;7115;50.150;8.568;2023-09-08T04:53:35;18.00;98.60
14079;DHT22;7115;50.150;8.568;2023-09-08T04:56:03;18.10;98.60
14079;DHT22;7115;50.150;8.568;2023-09-08T04:58:30;18.10;98.60
14079;DHT22;7115;50.150;8.568;2023-09-08T05:00:57;18.10;98.60
14079;DHT22;7115;50.150;8.568;2023-09-08T05:03:24;18.10;98.70
14079;DHT22;7115;50.150;8.568;2023-09-08T05:05:53;18.10;98.70
14079;DHT22;7115;50.150;8.568;2023-09-08T05:08:19;17.90;98.60
14079;DHT22;7115;50.150;8.568;2023-09-08T05:10:48;18.10;98.70
14079;DHT22;7115;50.150;8.568;2023-09-08T05:13:16;18.10;98.70
14079;DHT22;7115;50.150;8.568;2023-09-08T05:15:57;18.00;98.80
14079;DHT22;7115;50.150;8.568;2023-09-08T05:18:38;18.00;98.80
14079;DHT22;7115;50.150;8.568;2023-09-08T05:21:05;18.00;98.90
14079;DHT22;7115;50.150;8.568;2023-09-08T05:23:32;18.00;98.90
14079;DHT22;7115;50.150;8.568;2023-09-08T05:26:00;18.00;99.00
14079;DHT22;7115;50.150;8.568;2023-09-08T05:28:27;18.00;99.00
14079;DHT22;7115;50.150;8.568;2023-09-08T05:30:54;18.00;99.00
14079;DHT22;7115;50.150;8.568;2023-09-08T05:33:21;18.00;99.10
14079;DHT22;7115;50.150;8.568;2023-09-08T05:35:48;18.00;99.10
14079;DHT22;7115;50.150;8.568;2023-09-08T05:38:15;18.00;99.20
14079;DHT22;7115;50.150;8.568;2023-09-08T05:40:42;18.10;99.20
14079;DHT22;7115;50.150;8.568;2023-09-08T05:43:11;18.10;99.30
14079;DHT22;7115;50.150;8.568;2023-09-08T05:45:38;18.20;99.30
14079;DHT22;7115;50.150;8.568;2023-09-08T05:48:05;18.20;99.30
14079;DHT22;7115;50.150;8.568;2023-09-08T05:50:33;18.30;99.30
14079;DHT22;7115;50.150;8.568;2023-09-08T05:52:59;18.30;99.40
14079;DHT22;7115;50.150;8.568;2023-09-08T05:55:26;18.40;99.80
14079;DHT22;7115;50.150;8.568;2023-09-08T05:57:53;18.50;99.40
14079;DHT22;7115;50.150;8.568;2023-09-08T06:00:22;18.60;99.50
14079;DHT22;7115;50.150;8.568;2023-09-08T06:02:50;18.60;99.80
14079;DHT22;7115;50.150;8.568;2023-09-08T06:05:18;18.70;99.50
14079;DHT22;7115;50.150;8.568;2023-09-08T06:07:44;18.70;99.60
14079;DHT22;7115;50.150;8.568;2023-09-08T06:10:30;18.80;99.60
14079;DHT22;7115;50.150;8.568;2023-09-08T06:12:57;18.90;99.60
14079;DHT22;7115;50.150;8.568;2023-09-08T06:15:25;19.00;99.90
14079;DHT22;7115;50.150;8.568;2023-09-08T06:17:52;19.10;99.60
14079;DHT22;7115;50.150;8.568;2023-09-08T06:20:19;19.30;99.60
14079;DHT22;7115;50.150;8.568;2023-09-08T06:22:46;19.40;99.60
14079;DHT22;7115;50.150;8.568;2023-09-08T06:25:13;19.60;99.70
14079;DHT22;7115;50.150;8.568;2023-09-08T06:27:40;19.80;99.60
14079;DHT22;7115;50.150;8.568;2023-09-08T06:30:08;20.00;99.60
14079;DHT22;7115;50.150;8.568;2023-09-08T06:32:36;20.20;99.50
14079;DHT22;7115;50.150;8.568;2023-09-08T06:35:04;20.40;99.40
14079;DHT22;7115;50.150;8.568;2023-09-08T06:37:35;20.70;99.30
14079;DHT22;7115;50.150;8.568;2023-09-08T06:40:03;20.90;99.10
14079;DHT22;7115;50.150;8.568;2023-09-08T06:42:30;21.20;99.00
14079;DHT22;7115;50.150;8.568;2023-09-08T06:44:58;21.40;98.80
14079;DHT22;7115;50.150;8.568;2023-09-08T06:47:25;21.70;98.60
14079;DHT22;7115;50.150;8.568;2023-09-08T06:49:54;22.00;98.30
14079;DHT22;7115;50.150;8.568;2023-09-08T06:52:21;22.20;98.10
14079;DHT22;7115;50.150;8.568;2023-09-08T06:54:48;22.50;97.90
14079;DHT22;7115;50.150;8.568;2023-09-08T06:57:18;22.90;97.70
14079;DHT22;7115;50.150;8.568;2023-09-08T06:59:45;23.30;97.30
14079;DHT22;7115;50.150;8.568;2023-09-08T07:02:12;23.80;97.10
14079;DHT22;7115;50.150;8.568;2023-09-08T07:04:39;24.40;96.80
14079;DHT22;7115;50.150;8.568;2023-09-08T07:07:08;25.00;96.30
14079;DHT22;7115;50.150;8.568;2023-09-08T07:09:37;25.70;95.70
14079;DHT22;7115;50.150;8.568;2023-09-08T07:12:05;26.50;95.00
14079;DHT22;7115;50.150;8.568;2023-09-08T07:14:33;27.20;94.10
14079;DHT22;7115;50.150;8.568;2023-09-08T07:17:00;27.90;93.10
14079;DHT22;7115;50.150;8.568;2023-09-08T07:19:27;28.60;92.00
14079;DHT22;7115;50.150;8.568;2023-09-08T07:21:54;29.30;91.00
14079;DHT22;7115;50.150;8.568;2023-09-08T07:24:22;29.90;90.00
14079;DHT22;7115;50.150;8.568;2023-09-08T07:26:50;30.50;87.50
14079;DHT22;7115;50.150;8.568;2023-09-08T07:29:17;30.90;85.60
14079;DHT22;7115;50.150;8.568;2023-09-08T07:31:45;31.40;83.70
14079;DHT22;7115;50.150;8.568;2023-09-08T07:34:12;31.70;82.00
14079;DHT22;7115;50.150;8.568;2023-09-08T07:36:39;31.90;80.00
14079;DHT22;7115;50.150;8.568;2023-09-08T07:39:06;32.00;78.80
14079;DHT22;7115;50.150;8.568;2023-09-08T07:41:35;32.20;77.80
14079;DHT22;7115;50.150;8.568;2023-09-08T07:44:03;32.30;76.80
14079;DHT22;7115;50.150;8.568;2023-09-08T07:46:30;32.30;76.00
14079;DHT22;7115;50.150;8.568;2023-09-08T07:48:58;32.30;75.30
14079;DHT22;7115;50.150;8.568;2023-09-08T07:51:25;32.30;74.80
14079;DHT22;7115;50.150;8.568;2023-09-08T07:53:53;32.20;74.60
14079;DHT22;7115;50.150;8.568;2023-09-08T07:56:20;32.00;74.60
14079;DHT22;7115;50.150;8.568;2023-09-08T07:58:49;31.80;74.40
14079;DHT22;7115;50.150;8.568;2023-09-08T08:01:15;31.60;74.10
14079;DHT22;7115;50.150;8.568;2023-09-08T08:03:43;31.30;74.30
14079;DHT22;7115;50.150;8.568;2023-09-08T08:06:10;31.20;74.60
14079;DHT22;7115;50.150;8.568;2023-09-08T08:08:36;31.10;74.60
14079;DHT22;7115;50.150;8.568;2023-09-08T08:11:10;31.00;74.80
14079;DHT22;7115;50.150;8.568;2023-09-08T08:13:37;30.70;74.80
14079;DHT22;7115;50.150;8.568;2023-09-08T08:16:05;30.50;75.10
14079;DHT22;7115;50.150;8.568;2023-09-08T08:18:32;30.30;75.30
14079;DHT22;7115;50.150;8.568;2023-09-08T08:21:00;30.20;75.60
14079;DHT22;7115;50.150;8.568;2023-09-08T08:23:27;30.10;75.90
14079;DHT22;7115;50.150;8.568;2023-09-08T08:25:54;30.00;76.00
14079;DHT22;7115;50.150;8.568;2023-09-08T08:28:21;30.00;75.90
14079;DHT22;7115;50.150;8.568;2023-09-08T08:30:48;29.90;75.70
14079;DHT22;7115;50.150;8.568;2023-09-08T08:33:16;29.80;75.90
14079;DHT22;7115;50.150;8.568;2023-09-08T08:35:48;29.70;76.30
14079;DHT22;7115;50.150;8.568;2023-09-08T08:38:15;29.70;76.40
14079;DHT22;7115;50.150;8.568;2023-09-08T08:40:42;29.70;76.50
14079;DHT22;7115;50.150;8.568;2023-09-08T08:43:09;29.70;76.20
14079;DHT22;7115;50.150;8.568;2023-09-08T08:45:38;29.50;76.10
14079;DHT22;7115;50.150;8.568;2023-09-08T08:48:06;29.50;76.60
14079;DHT22;7115;50.150;8.568;2023-09-08T08:50:37;29.50;77.00
14079;DHT22;7115;50.150;8.568;2023-09-08T08:53:05;29.70;76.90
14079;DHT22;7115;50.150;8.568;2023-09-08T08:55:34;29.80;76.80
14079;DHT22;7115;50.150;8.568;2023-09-08T08:58:03;30.00;76.50
14079;DHT22;7115;50.150;8.568;2023-09-08T09:00:34;30.20;76.20
14079;DHT22;7115;50.150;8.568;2023-09-08T09:03:04;30.30;75.90
14079;DHT22;7115;50.150;8.568;2023-09-08T09:05:43;30.40;75.60
14079;DHT22;7115;50.150;8.568;2023-09-08T09:08:15;30.50;75.30
14079;DHT22;7115;50.150;8.568;2023-09-08T09:10:43;30.70;75.20
14079;DHT22;7115;50.150;8.568;2023-09-08T09:13:09;30.90;74.90
14079;DHT22;7115;50.150;8.568;2023-09-08T09:15:36;31.10;74.10
14079;DHT22;7115;50.150;8.568;2023-09-08T09:18:05;31.30;73.30
14079;DHT22;7115;50.150;8.568;2023-09-08T09:20:33;31.40;72.60
14079;DHT22;7115;50.150;8.568;2023-09-08T09:23:02;31.40;72.20
14079;DHT22;7115;50.150;8.568;2023-09-08T09:25:31;31.50;72.00
14079;DHT22;7115;50.150;8.568;2023-09-08T09:27:59;31.50;71.40
14079;DHT22;7115;50.150;8.568;2023-09-08T09:30:27;31.60;71.30
14079;DHT22;7115;50.150;8.568;2023-09-08T09:33:01;31.70;71.10
14079;DHT22;7115;50.150;8.568;2023-09-08T09:35:42;31.80;70.80
14079;DHT22;7115;50.150;8.568;2023-09-08T09:38:12;32.00;70.50
14079;DHT22;7115;50.150;8.568;2023-09-08T09:40:39;32.20;70.00
14079;DHT22;7115;50.150;8.568;2023-09-08T09:43:07;32.20;69.60
14079;DHT22;7115;50.150;8.568;2023-09-08T09:45:36;32.20;69.10
14079;DHT22;7115;50.150;8.568;2023-09-08T09:48:03;32.20;68.70
14079;DHT22;7115;50.150;8.568;2023-09-08T09:50:32;32.30;68.50
14079;DHT22;7115;50.150;8.568;2023-09-08T09:53:01;32.50;68.10
14079;DHT22;7115;50.150;8.568;2023-09-08T09:55:31;32.50;67.80
14079;DHT22;7115;50.150;8.568;2023-09-08T09:58:01;32.60;68.10
14079;DHT22;7115;50.150;8.568;2023-09-08T10:00:33;32.80;67.80
14079;DHT22;7115;50.150;8.568;2023-09-08T10:03:01;33.00;67.80
14079;DHT22;7115;50.150;8.568;2023-09-08T10:05:29;33.20;67.40
14079;DHT22;7115;50.150;8.568;2023-09-08T10:07:56;33.40;66.90
14079;DHT22;7115;50.150;8.568;2023-09-08T10:10:26;33.50;66.50
14079;DHT22;7115;50.150;8.568;2023-09-08T10:12:59;33.70;66.50
14079;DHT22;7115;50.150;8.568;2023-09-08T10:15:28;33.90;66.40
14079;DHT22;7115;50.150;8.568;2023-09-08T10:17:57;34.10;65.60
14079;DHT22;7115;50.150;8.568;2023-09-08T10:20:27;34.30;64.80
14079;DHT22;7115;50.150;8.568;2023-09-08T10:23:01;34.40;63.90
14079;DHT22;7115;50.150;8.568;2023-09-08T10:25:34;34.30;63.70
14079;DHT22;7115;50.150;8.568;2023-09-08T10:28:04;34.50;63.30
14079;DHT22;7115;50.150;8.568;2023-09-08T10:30:32;34.50;62.80
14079;DHT22;7115;50.150;8.568;2023-09-08T10:32:59;34.60;62.80
14079;DHT22;7115;50.150;8.568;2023-09-08T10:35:28;34.60;62.50
14079;DHT22;7115;50.150;8.568;2023-09-08T10:38:21;34.60;61.90
14079;DHT22;7115;50.150;8.568;2023-09-08T10:40:48;34.50;61.80
14079;DHT22;7115;50.150;8.568;2023-09-08T10:43:18;34.30;61.90
14079;DHT22;7115;50.150;8.568;2023-09-08T10:45:45;34.20;61.80
14079;DHT22;7115;50.150;8.568;2023-09-08T10:48:13;34.30;62.10
14079;DHT22;7115;50.150;8.568;2023-09-08T10:50:42;34.50;61.90
14079;DHT22;7115;50.150;8.568;2023-09-08T10:53:13;34.60;61.30
14079;DHT22;7115;50.150;8.568;2023-09-08T10:55:42;34.70;60.70
14079;DHT22;7115;50.150;8.568;2023-09-08T10:58:10;34.70;60.30
14079;DHT22;7115;50.150;8.568;2023-09-08T11:00:46;34.70;60.60
14079;DHT22;7115;50.150;8.568;2023-09-08T11:03:25;35.00;60.20
14079;DHT22;7115;50.150;8.568;2023-09-08T11:05:53;35.10;59.70
14079;DHT22;7115;50.150;8.568;2023-09-08T11:08:21;35.20;59.50
14079;DHT22;7115;50.150;8.568;2023-09-08T11:10:49;35.20;59.10
14079;DHT22;7115;50.150;8.568;2023-09-08T11:13:16;35.10;59.50
14079;DHT22;7115;50.150;8.568;2023-09-08T11:15:43;35.20;59.00
14079;DHT22;7115;50.150;8.568;2023-09-08T11:18:11;35.40;58.90
14079;DHT22;7115;50.150;8.568;2023-09-08T11:20:38;35.60;58.40
14079;DHT22;7115;50.150;8.568;2023-09-08T11:23:05;35.80;58.10
14079;DHT22;7115;50.150;8.568;2023-09-08T11:25:32;36.00;58.00
14079;DHT22;7115;50.150;8.568;2023-09-08T11:28:01;36.10;58.00
14079;DHT22;7115;50.150;8.568;2023-09-08T11:30:28;36.40;58.00
14079;DHT22;7115;50.150;8.568;2023-09-08T11:32:56;36.80;57.90
14079;DHT22;7115;50.150;8.568;2023-09-08T11:35:32;37.30;57.70
14079;DHT22;7115;50.150;8.568;2023-09-08T11:38:00;37.70;57.10
14079;DHT22;7115;50.150;8.568;2023-09-08T11:40:27;38.00;56.60
14079;DHT22;7115;50.150;8.568;2023-09-08T11:42:54;38.40;56.10
14079;DHT22;7115;50.150;8.568;2023-09-08T11:45:21;38.70;55.80
14079;DHT22;7115;50.150;8.568;2023-09-08T11:47:50;39.10;55.60
14079;DHT22;7115;50.150;8.568;2023-09-08T11:50:20;39.40;55.20
14079;DHT22;7115;50.150;8.568;2023-09-08T11:52:49;39.60;54.80
14079;DHT22;7115;50.150;8.568;2023-09-08T11:55:17;39.70;54.20
14079;DHT22;7115;50.150;8.568;2023-09-08T11:57:47;39.70;53.90
14079;DHT22;7115;50.150;8.568;2023-09-08T12:00:18;39.50;53.60
14079;DHT22;7115;50.150;8.568;2023-09-08T12:02:46;39.40;53.60
14079;DHT22;7115;50.150;8.568;2023-09-08T12:05:13;39.40;53.60
14079;DHT22;7115;50.150;8.568;2023-09-08T12:07:48;39.50;53.60
14079;DHT22;7115;50.150;8.568;2023-09-08T12:10:15;39.50;53.40
14079;DHT22;7115;50.150;8.568;2023-09-08T12:12:43;39.50;53.00
14079;DHT22;7115;50.150;8.568;2023-09-08T12:15:10;39.30;52.80
14079;DHT22;7115;50.150;8.568;2023-09-08T12:17:47;39.00;53.00
14079;DHT22;7115;50.150;8.568;2023-09-08T12:20:15;38.90;53.30
14079;DHT22;7115;50.150;8.568;2023-09-08T12:22:51;38.80;53.40
14079;DHT22;7115;50.150;8.568;2023-09-08T12:25:18;38.70;53.30
14079;DHT22;7115;50.150;8.568;2023-09-08T12:27:46;38.60;53.30
14079;DHT22;7115;50.150;8.568;2023-09-08T12:30:20;38.20;53.20
14079;DHT22;7115;50.150;8.568;2023-09-08T12:32:48;37.80;53.30
14079;DHT22;7115;50.150;8.568;2023-09-08T12:35:22;37.30;53.60
14079;DHT22;7115;50.150;8.568;2023-09-08T12:37:56;37.10;54.10
14079;DHT22;7115;50.150;8.568;2023-09-08T12:40:23;37.00;54.30
14079;DHT22;7115;50.150;8.568;2023-09-08T12:42:50;36.80;54.30
14079;DHT22;7115;50.150;8.568;2023-09-08T12:45:25;36.50;54.30
14079;DHT22;7115;50.150;8.568;2023-09-08T12:47:52;36.30;54.60
14079;DHT22;7115;50.150;8.568;2023-09-08T12:50:21;36.00;54.70
14079;DHT22;7115;50.150;8.568;2023-09-08T12:52:48;35.70;54.80
14079;DHT22;7115;50.150;8.568;2023-09-08T12:55:17;35.60;55.20
14079;DHT22;7115;50.150;8.568;2023-09-08T12:57:44;35.50;55.60
14079;DHT22;7115;50.150;8.568;2023-09-08T13:00:12;35.30;55.70
14079;DHT22;7115;50.150;8.568;2023-09-08T13:02:39;35.30;56.20
14079;DHT22;7115;50.150;8.568;2023-09-08T13:05:07;35.20;56.10
14079;DHT22;7115;50.150;8.568;2023-09-08T13:07:34;35.10;56.20
14079;DHT22;7115;50.150;8.568;2023-09-08T13:10:01;34.90;56.50
14079;DHT22;7115;50.150;8.568;2023-09-08T13:12:30;34.80;56.90
14079;DHT22;7115;50.150;8.568;2023-09-08T13:14:58;34.70;57.20
14079;DHT22;7115;50.150;8.568;2023-09-08T13:17:25;34.40;57.20
14079;DHT22;7115;50.150;8.568;2023-09-08T13:19:52;34.30;57.40
14079;DHT22;7115;50.150;8.568;2023-09-08T13:22:20;34.10;57.80
14079;DHT22;7115;50.150;8.568;2023-09-08T13:24:47;34.10;58.00
14079;DHT22;7115;50.150;8.568;2023-09-08T13:27:13;34.10;58.10
14079;DHT22;7115;50.150;8.568;2023-09-08T13:29:45;34.20;58.40
14079;DHT22;7115;50.150;8.568;2023-09-08T13:32:12;34.30;58.30
14079;DHT22;7115;50.150;8.568;2023-09-08T13:34:39;34.40;58.10
14079;DHT22;7115;50.150;8.568;2023-09-08T13:37:06;34.50;58.20
14079;DHT22;7115;50.150;8.568;2023-09-08T13:39:33;34.50;58.20
14079;DHT22;7115;50.150;8.568;2023-09-08T13:42:01;34.50;58.20
14079;DHT22;7115;50.150;8.568;2023-09-08T13:44:28;34.50;58.10
14079;DHT22;7115;50.150;8.568;2023-09-08T13:46:56;34.50;57.90
14079;DHT22;7115;50.150;8.568;2023-09-08T13:49:23;34.50;58.00
14079;DHT22;7115;50.150;8.568;2023-09-08T13:51:53;34.50;57.90
14079;DHT22;7115;50.150;8.568;2023-09-08T13:54:23;34.50;57.70
14079;DHT22;7115;50.150;8.568;2023-09-08T13:56:58;34.50;57.50
14079;DHT22;7115;50.150;8.568;2023-09-08T13:59:27;34.50;57.40
14079;DHT22;7115;50.150;8.568;2023-09-08T14:02:02;34.50;57.50
14079;DHT22;7115;50.150;8.568;2023-09-08T14:04:50;34.50;57.30
14079;DHT22;7115;50.150;8.568;2023-09-08T14:07:20;34.40;57.30
14079;DHT22;7115;50.150;8.568;2023-09-08T14:09:50;34.20;57.20
14079;DHT22;7115;50.150;8.568;2023-09-08T14:12:28;34.10;57.10
14079;DHT22;7115;50.150;8.568;2023-09-08T14:15:01;34.00;57.20
14079;DHT22;7115;50.150;8.568;2023-09-08T14:17:30;33.90;57.60
14079;DHT22;7115;50.150;8.568;2023-09-08T14:19:57;33.90;57.70
14079;DHT22;7115;50.150;8.568;2023-09-08T14:22:24;33.90;57.60
14079;DHT22;7115;50.150;8.568;2023-09-08T14:24:51;33.90;57.50
14079;DHT22;7115;50.150;8.568;2023-09-08T14:27:18;33.90;57.80
14079;DHT22;7115;50.150;8.568;2023-09-08T14:29:45;33.90;57.90
14079;DHT22;7115;50.150;8.568;2023-09-08T14:32:12;34.00;58.00
14079;DHT22;7115;50.150;8.568;2023-09-08T14:34:40;34.00;58.20
14079;DHT22;7115;50.150;8.568;2023-09-08T14:37:07;34.10;58.00
14079;DHT22;7115;50.150;8.568;2023-09-08T14:39:37;34.00;57.40
14079;DHT22;7115;50.150;8.568;2023-09-08T14:42:04;33.90;57.00
14079;DHT22;7115;50.150;8.568;2023-09-08T14:44:32;33.90;56.80
14079;DHT22;7115;50.150;8.568;2023-09-08T14:46:59;33.90;56.70
14079;DHT22;7115;50.150;8.568;2023-09-08T14:49:26;33.90;56.90
14079;DHT22;7115;50.150;8.568;2023-09-08T14:51:54;33.80;57.00
14079;DHT22;7115;50.150;8.568;2023-09-08T14:54:21;33.70;56.90
14079;DHT22;7115;50.150;8.568;2023-09-08T14:56:48;33.60;56.90
14079;DHT22;7115;50.150;8.568;2023-09-08T14:59:15;33.40;57.00
14079;DHT22;7115;50.150;8.568;2023-09-08T15:01:42;33.30;57.10
14079;DHT22;7115;50.150;8.568;2023-09-08T15:04:11;33.20;57.20
14079;DHT22;7115;50.150;8.568;2023-09-08T15:06:38;33.20;57.20
14079;DHT22;7115;50.150;8.568;2023-09-08T15:09:06;33.30;57.60
14079;DHT22;7115;50.150;8.568;2023-09-08T15:11:33;33.30;57.60
14079;DHT22;7115;50.150;8.568;2023-09-08T15:14:00;33.30;57.70
14079;DHT22;7115;50.150;8.568;2023-09-08T15:16:27;33.30;58.10
14079;DHT22;7115;50.150;8.568;2023-09-08T15:18:54;33.30;58.10
14079;DHT22;7115;50.150;8.568;2023-09-08T15:21:24;33.30;58.40
14079;DHT22;7115;50.150;8.568;2023-09-08T15:23:54;33.30;58.80
14079;DHT22;7115;50.150;8.568;2023-09-08T15:26:22;33.30;58.90
14079;DHT22;7115;50.150;8.568;2023-09-08T15:28:49;33.20;58.90
14079;DHT22;7115;50.150;8.568;2023-09-08T15:31:16;33.20;58.80
14079;DHT22;7115;50.150;8.568;2023-09-08T15:33:43;33.10;58.60
14079;DHT22;7115;50.150;8.568;2023-09-08T15:36:10;33.10;58.70
14079;DHT22;7115;50.150;8.568;2023-09-08T15:38:37;33.10;58.60
14079;DHT22;7115;50.150;8.568;2023-09-08T15:41:18;33.00;58.70
14079;DHT22;7115;50.150;8.568;2023-09-08T15:43:48;33.10;58.90
14079;DHT22;7115;50.150;8.568;2023-09-08T15:46:17;33.00;59.00
14079;DHT22;7115;50.150;8.568;2023-09-08T15:48:44;32.90;59.00
14079;DHT22;7115;50.150;8.568;2023-09-08T15:51:11;32.90;59.00
14079;DHT22;7115;50.150;8.568;2023-09-08T15:53:38;32.90;58.90